sensor_id;sensor_type;location;lat;lon;timestamp;P1;durP1;ratioP1;P2;durP2;ratioP2
30896;SDS011;64229;52.246;21.054;2024-02-16T00:00:14;37.17;;;16.57;;
30896;SDS011;64229;52.246;21.054;2024-02-16T00:02:41;35.75;;;16.02;;
30896;SDS011;64229;52.246;21.054;2024-02-16T00:05:08;38.35;;;15.95;;
30896;SDS011;64229;52.246;21.054;2024-02-16T00:07:33;35.83;;;15.90;;
30896;SDS011;64229;52.246;21.054;2024-02-16T00:09:59;40.00;;;16.88;;
30896;SDS011;64229;52.246;21.054;2024-02-16T00:12:24;41.47;;;15.35;;
30896;SDS011;64229;52.246;21.054;2024-02-16T00:14:50;34.17;;;14.77;;
30896;SDS011;64229;52.246;21.054;2024-02-16T00:17:15;34.93;;;14.33;;
30896;SDS011;64229;52.246;21.054;2024-02-16T00:19:40;40.50;;;15.65;;
30896;SDS011;64229;52.246;21.054;2024-02-16T00:22:05;34.35;;;15.43;;
30896;SDS011;64229;52.246;21.054;2024-02-16T00:24:34;34.33;;;15.93;;
30896;SDS011;64229;52.246;21.054;2024-02-16T00:27:01;30.40;;;14.10;;
30896;SDS011;64229;52.246;21.054;2024-02-16T00:29:28;31.33;;;15.07;;
30896;SDS011;64229;52.246;21.054;2024-02-16T00:31:53;34.97;;;15.77;;
30896;SDS011;64229;52.246;21.054;2024-02-16T00:34:18;34.80;;;15.63;;
30896;SDS011;64229;52.246;21.054;2024-02-16T00:36:44;31.77;;;15.03;;
30896;SDS011;64229;52.246;21.054;2024-02-16T00:39:09;31.65;;;14.38;;
30896;SDS011;64229;52.246;21.054;2024-02-16T00:41:34;30.10;;;14.65;;
30896;SDS011;64229;52.246;21.054;2024-02-16T00:44:00;44.53;;;15.38;;
30896;SDS011;64229;52.246;21.054;2024-02-16T00:46:25;33.20;;;15.05;;
30896;SDS011;64229;52.246;21.054;2024-02-16T00:48:51;28.63;;;13.20;;
30896;SDS011;64229;52.246;21.054;2024-02-16T00:51:19;30.23;;;14.32;;
30896;SDS011;64229;52.246;21.054;2024-02-16T00:53:45;35.47;;;14.43;;
30896;SDS011;64229;52.246;21.054;2024-02-16T00:56:11;32.05;;;13.95;;
30896;SDS011;64229;52.246;21.054;2024-02-16T00:58:36;30.88;;;13.52;;
30896;SDS011;64229;52.246;21.054;2024-02-16T01:01:04;32.63;;;12.75;;
30896;SDS011;64229;52.246;21.054;2024-02-16T01:03:29;32.05;;;13.88;;
30896;SDS011;64229;52.246;21.054;2024-02-16T01:05:55;28.17;;;13.48;;
30896;SDS011;64229;52.246;21.054;2024-02-16T01:08:20;28.13;;;12.30;;
30896;SDS011;64229;52.246;21.054;2024-02-16T01:10:45;29.13;;;13.50;;
30896;SDS011;64229;52.246;21.054;2024-02-16T01:13:12;24.58;;;12.00;;
30896;SDS011;64229;52.246;21.054;2024-02-16T01:15:37;27.83;;;13.07;;
30896;SDS011;64229;52.246;21.054;2024-02-16T01:18:03;29.83;;;13.07;;
30896;SDS011;64229;52.246;21.054;2024-02-16T01:20:29;28.20;;;13.32;;
30896;SDS011;64229;52.246;21.054;2024-02-16T01:22:56;27.70;;;13.07;;
30896;SDS011;64229;52.246;21.054;2024-02-16T01:25:22;27.10;;;12.77;;
30896;SDS011;64229;52.246;21.054;2024-02-16T01:27:47;27.83;;;12.18;;
30896;SDS011;64229;52.246;21.054;2024-02-16T01:30:12;26.30;;;12.75;;
30896;SDS011;64229;52.246;21.054;2024-02-16T01:32:39;28.20;;;11.93;;
30896;SDS011;64229;52.246;21.054;2024-02-16T01:35:05;27.60;;;12.73;;
30896;SDS011;64229;52.246;21.054;2024-02-16T01:37:31;26.35;;;11.70;;
30896;SDS011;64229;52.246;21.054;2024-02-16T01:39:56;24.43;;;12.27;;
30896;SDS011;64229;52.246;21.054;2024-02-16T01:42:22;24.30;;;11.80;;
30896;SDS011;64229;52.246;21.054;2024-02-16T01:44:47;24.58;;;11.35;;
30896;SDS011;64229;52.246;21.054;2024-02-16T01:47:12;24.23;;;10.90;;
30896;SDS011;64229;52.246;21.054;2024-02-16T01:49:38;26.85;;;10.88;;
30896;SDS011;64229;52.246;21.054;2024-02-16T01:52:04;27.45;;;11.80;;
30896;SDS011;64229;52.246;21.054;2024-02-16T01:54:29;21.63;;;11.35;;
30896;SDS011;64229;52.246;21.054;2024-02-16T01:56:55;30.13;;;10.85;;
30896;SDS011;64229;52.246;21.054;2024-02-16T01:59:20;22.73;;;10.70;;
30896;SDS011;64229;52.246;21.054;2024-02-16T02:01:45;21.95;;;10.60;;
30896;SDS011;64229;52.246;21.054;2024-02-16T02:04:11;28.77;;;11.48;;
30896;SDS011;64229;52.246;21.054;2024-02-16T02:06:36;23.17;;;9.95;;
30896;SDS011;64229;52.246;21.054;2024-02-16T02:09:02;21.73;;;11.07;;
30896;SDS011;64229;52.246;21.054;2024-02-16T02:11:28;24.05;;;10.23;;
30896;SDS011;64229;52.246;21.054;2024-02-16T02:13:53;20.73;;;10.45;;
30896;SDS011;64229;52.246;21.054;2024-02-16T02:16:18;23.07;;;10.40;;
30896;SDS011;64229;52.246;21.054;2024-02-16T02:18:44;22.67;;;10.60;;
30896;SDS011;64229;52.246;21.054;2024-02-16T02:21:09;19.15;;;9.73;;
30896;SDS011;64229;52.246;21.054;2024-02-16T02:23:35;21.48;;;11.05;;
30896;SDS011;64229;52.246;21.054;2024-02-16T02:26:00;20.88;;;10.48;;
30896;SDS011;64229;52.246;21.054;2024-02-16T02:28:26;25.52;;;10.38;;
30896;SDS011;64229;52.246;21.054;2024-02-16T02:30:51;21.80;;;10.45;;
30896;SDS011;64229;52.246;21.054;2024-02-16T02:33:18;19.02;;;10.20;;
30896;SDS011;64229;52.246;21.054;2024-02-16T02:35:44;24.00;;;10.38;;
30896;SDS011;64229;52.246;21.054;2024-02-16T02:38:11;19.23;;;10.20;;
30896;SDS011;64229;52.246;21.054;2024-02-16T02:40:36;23.55;;;9.60;;
30896;SDS011;64229;52.246;21.054;2024-02-16T02:43:02;22.65;;;10.02;;
30896;SDS011;64229;52.246;21.054;2024-02-16T02:45:28;18.67;;;9.48;;
30896;SDS011;64229;52.246;21.054;2024-02-16T02:47:54;26.65;;;10.00;;
30896;SDS011;64229;52.246;21.054;2024-02-16T02:50:19;22.58;;;9.73;;
30896;SDS011;64229;52.246;21.054;2024-02-16T02:52:44;25.27;;;9.30;;
30896;SDS011;64229;52.246;21.054;2024-02-16T02:55:10;23.67;;;9.75;;
30896;SDS011;64229;52.246;21.054;2024-02-16T02:57:36;21.15;;;10.35;;
30896;SDS011;64229;52.246;21.054;2024-02-16T03:00:05;21.23;;;9.82;;
30896;SDS011;64229;52.246;21.054;2024-02-16T03:02:31;19.10;;;9.18;;
30896;SDS011;64229;52.246;21.054;2024-02-16T03:04:57;23.90;;;10.02;;
30896;SDS011;64229;52.246;21.054;2024-02-16T03:07:22;21.40;;;10.13;;
30896;SDS011;64229;52.246;21.054;2024-02-16T03:09:47;21.55;;;10.63;;
30896;SDS011;64229;52.246;21.054;2024-02-16T03:12:13;22.42;;;9.25;;
30896;SDS011;64229;52.246;21.054;2024-02-16T03:14:38;22.70;;;9.87;;
30896;SDS011;64229;52.246;21.054;2024-02-16T03:17:03;17.52;;;9.70;;
30896;SDS011;64229;52.246;21.054;2024-02-16T03:19:28;22.20;;;9.52;;
30896;SDS011;64229;52.246;21.054;2024-02-16T03:21:54;19.65;;;9.93;;
30896;SDS011;64229;52.246;21.054;2024-02-16T03:24:19;20.00;;;9.80;;
30896;SDS011;64229;52.246;21.054;2024-02-16T03:26:45;20.27;;;9.13;;
30896;SDS011;64229;52.246;21.054;2024-02-16T03:29:10;18.67;;;9.00;;
30896;SDS011;64229;52.246;21.054;2024-02-16T03:31:35;19.40;;;9.70;;
30896;SDS011;64229;52.246;21.054;2024-02-16T03:34:01;24.33;;;9.18;;
30896;SDS011;64229;52.246;21.054;2024-02-16T03:36:26;23.83;;;9.27;;
30896;SDS011;64229;52.246;21.054;2024-02-16T03:38:51;18.37;;;9.73;;
30896;SDS011;64229;52.246;21.054;2024-02-16T03:41:20;21.05;;;9.75;;
30896;SDS011;64229;52.246;21.054;2024-02-16T03:43:46;19.38;;;9.90;;
30896;SDS011;64229;52.246;21.054;2024-02-16T03:46:12;19.98;;;9.65;;
30896;SDS011;64229;52.246;21.054;2024-02-16T03:48:38;21.55;;;9.70;;
30896;SDS011;64229;52.246;21.054;2024-02-16T03:51:03;21.75;;;9.23;;
30896;SDS011;64229;52.246;21.054;2024-02-16T03:53:29;21.70;;;9.95;;
30896;SDS011;64229;52.246;21.054;2024-02-16T03:55:54;20.30;;;9.18;;
30896;SDS011;64229;52.246;21.054;2024-02-16T03:58:21;23.13;;;10.48;;
30896;SDS011;64229;52.246;21.054;2024-02-16T04:00:46;18.88;;;9.30;;
30896;SDS011;64229;52.246;21.054;2024-02-16T04:03:13;21.75;;;9.55;;
30896;SDS011;64229;52.246;21.054;2024-02-16T04:05:39;19.42;;;9.40;;
30896;SDS011;64229;52.246;21.054;2024-02-16T04:08:04;21.98;;;9.73;;
30896;SDS011;64229;52.246;21.054;2024-02-16T04:10:31;22.30;;;9.32;;
30896;SDS011;64229;52.246;21.054;2024-02-16T04:12:56;17.63;;;9.07;;
30896;SDS011;64229;52.246;21.054;2024-02-16T04:15:22;20.83;;;9.82;;
30896;SDS011;64229;52.246;21.054;2024-02-16T04:17:47;25.67;;;10.30;;
30896;SDS011;64229;52.246;21.054;2024-02-16T04:20:14;18.63;;;9.30;;
30896;SDS011;64229;52.246;21.054;2024-02-16T04:22:39;20.70;;;10.25;;
30896;SDS011;64229;52.246;21.054;2024-02-16T04:25:05;23.45;;;10.07;;
30896;SDS011;64229;52.246;21.054;2024-02-16T04:27:30;19.10;;;9.48;;
30896;SDS011;64229;52.246;21.054;2024-02-16T04:29:56;18.63;;;9.43;;
30896;SDS011;64229;52.246;21.054;2024-02-16T04:32:22;21.58;;;9.73;;
30896;SDS011;64229;52.246;21.054;2024-02-16T04:34:50;17.58;;;9.27;;
30896;SDS011;64229;52.246;21.054;2024-02-16T04:37:17;24.98;;;10.45;;
30896;SDS011;64229;52.246;21.054;2024-02-16T04:39:43;20.92;;;9.57;;
30896;SDS011;64229;52.246;21.054;2024-02-16T04:42:09;25.58;;;10.25;;
30896;SDS011;64229;52.246;21.054;2024-02-16T04:44:36;20.30;;;9.85;;
30896;SDS011;64229;52.246;21.054;2024-02-16T04:47:03;22.00;;;9.60;;
30896;SDS011;64229;52.246;21.054;2024-02-16T04:49:28;23.00;;;9.48;;
30896;SDS011;64229;52.246;21.054;2024-02-16T04:51:54;21.27;;;10.40;;
30896;SDS011;64229;52.246;21.054;2024-02-16T04:54:19;19.83;;;9.75;;
30896;SDS011;64229;52.246;21.054;2024-02-16T04:56:44;24.48;;;9.63;;
30896;SDS011;64229;52.246;21.054;2024-02-16T04:59:09;21.00;;;10.07;;
30896;SDS011;64229;52.246;21.054;2024-02-16T05:01:35;21.03;;;10.33;;
30896;SDS011;64229;52.246;21.054;2024-02-16T05:04:00;20.60;;;9.70;;
30896;SDS011;64229;52.246;21.054;2024-02-16T05:06:27;20.23;;;9.65;;
30896;SDS011;64229;52.246;21.054;2024-02-16T05:08:52;18.60;;;9.32;;
30896;SDS011;64229;52.246;21.054;2024-02-16T05:11:17;21.50;;;9.32;;
30896;SDS011;64229;52.246;21.054;2024-02-16T05:13:43;22.95;;;9.63;;
30896;SDS011;64229;52.246;21.054;2024-02-16T05:16:09;22.13;;;10.30;;
30896;SDS011;64229;52.246;21.054;2024-02-16T05:18:35;20.52;;;9.40;;
30896;SDS011;64229;52.246;21.054;2024-02-16T05:21:00;21.70;;;9.77;;
30896;SDS011;64229;52.246;21.054;2024-02-16T05:23:25;20.88;;;10.00;;
30896;SDS011;64229;52.246;21.054;2024-02-16T05:25:50;20.48;;;10.05;;
30896;SDS011;64229;52.246;21.054;2024-02-16T05:28:16;19.92;;;10.15;;
30896;SDS011;64229;52.246;21.054;2024-02-16T05:30:42;21.42;;;9.60;;
30896;SDS011;64229;52.246;21.054;2024-02-16T05:33:07;21.10;;;10.45;;
30896;SDS011;64229;52.246;21.054;2024-02-16T05:35:32;23.83;;;9.82;;
30896;SDS011;64229;52.246;21.054;2024-02-16T05:37:59;22.77;;;10.10;;
30896;SDS011;64229;52.246;21.054;2024-02-16T05:40:31;21.63;;;10.07;;
30896;SDS011;64229;52.246;21.054;2024-02-16T05:43:08;25.52;;;11.10;;
30896;SDS011;64229;52.246;21.054;2024-02-16T05:45:34;25.35;;;11.10;;
30896;SDS011;64229;52.246;21.054;2024-02-16T05:48:00;26.92;;;11.23;;
30896;SDS011;64229;52.246;21.054;2024-02-16T05:50:26;22.92;;;10.80;;
30896;SDS011;64229;52.246;21.054;2024-02-16T05:52:51;23.98;;;10.75;;
30896;SDS011;64229;52.246;21.054;2024-02-16T05:55:17;18.92;;;10.55;;
30896;SDS011;64229;52.246;21.054;2024-02-16T05:57:43;24.00;;;10.30;;
30896;SDS011;64229;52.246;21.054;2024-02-16T06:00:09;24.55;;;10.70;;
30896;SDS011;64229;52.246;21.054;2024-02-16T06:02:35;20.50;;;10.40;;
30896;SDS011;64229;52.246;21.054;2024-02-16T06:05:01;21.92;;;9.90;;
30896;SDS011;64229;52.246;21.054;2024-02-16T06:07:28;20.83;;;10.25;;
30896;SDS011;64229;52.246;21.054;2024-02-16T06:09:54;19.23;;;9.10;;
30896;SDS011;64229;52.246;21.054;2024-02-16T06:12:20;22.83;;;10.25;;
30896;SDS011;64229;52.246;21.054;2024-02-16T06:14:46;30.88;;;12.00;;
30896;SDS011;64229;52.246;21.054;2024-02-16T06:17:13;23.73;;;10.30;;
30896;SDS011;64229;52.246;21.054;2024-02-16T06:19:40;25.10;;;11.23;;
30896;SDS011;64229;52.246;21.054;2024-02-16T06:22:05;24.05;;;10.68;;
30896;SDS011;64229;52.246;21.054;2024-02-16T06:24:31;29.88;;;11.50;;
30896;SDS011;64229;52.246;21.054;2024-02-16T06:26:56;24.88;;;10.48;;
30896;SDS011;64229;52.246;21.054;2024-02-16T06:29:21;26.33;;;11.07;;
30896;SDS011;64229;52.246;21.054;2024-02-16T06:31:47;22.37;;;10.30;;
30896;SDS011;64229;52.246;21.054;2024-02-16T06:34:13;24.92;;;10.57;;
30896;SDS011;64229;52.246;21.054;2024-02-16T06:36:39;21.77;;;10.93;;
30896;SDS011;64229;52.246;21.054;2024-02-16T06:39:04;21.02;;;10.05;;
30896;SDS011;64229;52.246;21.054;2024-02-16T06:41:29;22.65;;;10.13;;
30896;SDS011;64229;52.246;21.054;2024-02-16T06:43:54;23.45;;;10.68;;
30896;SDS011;64229;52.246;21.054;2024-02-16T06:46:20;26.52;;;10.30;;
30896;SDS011;64229;52.246;21.054;2024-02-16T06:48:45;24.95;;;10.73;;
30896;SDS011;64229;52.246;21.054;2024-02-16T06:51:10;24.65;;;11.27;;
30896;SDS011;64229;52.246;21.054;2024-02-16T06:53:35;28.08;;;10.25;;
30896;SDS011;64229;52.246;21.054;2024-02-16T06:56:01;29.47;;;11.40;;
30896;SDS011;64229;52.246;21.054;2024-02-16T06:58:26;23.77;;;10.52;;
30896;SDS011;64229;52.246;21.054;2024-02-16T07:00:51;26.60;;;11.03;;
30896;SDS011;64229;52.246;21.054;2024-02-16T07:03:16;20.90;;;10.43;;
30896;SDS011;64229;52.246;21.054;2024-02-16T07:05:43;21.65;;;9.45;;
30896;SDS011;64229;52.246;21.054;2024-02-16T07:08:08;29.25;;;10.45;;
30896;SDS011;64229;52.246;21.054;2024-02-16T07:10:33;25.30;;;11.10;;
30896;SDS011;64229;52.246;21.054;2024-02-16T07:12:59;28.23;;;10.95;;
30896;SDS011;64229;52.246;21.054;2024-02-16T07:15:25;22.85;;;9.80;;
30896;SDS011;64229;52.246;21.054;2024-02-16T07:17:51;27.42;;;10.65;;
30896;SDS011;64229;52.246;21.054;2024-02-16T07:20:17;25.33;;;10.75;;
30896;SDS011;64229;52.246;21.054;2024-02-16T07:22:43;23.55;;;10.55;;
30896;SDS011;64229;52.246;21.054;2024-02-16T07:25:09;22.05;;;10.68;;
30896;SDS011;64229;52.246;21.054;2024-02-16T07:27:37;26.73;;;11.13;;
30896;SDS011;64229;52.246;21.054;2024-02-16T07:30:02;23.83;;;11.13;;
30896;SDS011;64229;52.246;21.054;2024-02-16T07:32:30;19.98;;;9.75;;
30896;SDS011;64229;52.246;21.054;2024-02-16T07:34:55;25.00;;;10.25;;
30896;SDS011;64229;52.246;21.054;2024-02-16T07:37:20;34.75;;;11.80;;
30896;SDS011;64229;52.246;21.054;2024-02-16T07:39:46;25.45;;;10.05;;
30896;SDS011;64229;52.246;21.054;2024-02-16T07:42:11;25.92;;;10.30;;
30896;SDS011;64229;52.246;21.054;2024-02-16T07:44:37;21.90;;;10.20;;
30896;SDS011;64229;52.246;21.054;2024-02-16T07:47:03;22.58;;;9.45;;
30896;SDS011;64229;52.246;21.054;2024-02-16T07:49:29;22.38;;;9.77;;
30896;SDS011;64229;52.246;21.054;2024-02-16T07:51:54;27.45;;;10.02;;
30896;SDS011;64229;52.246;21.054;2024-02-16T07:54:20;27.48;;;10.43;;
30896;SDS011;64229;52.246;21.054;2024-02-16T07:56:45;26.50;;;10.93;;
30896;SDS011;64229;52.246;21.054;2024-02-16T07:59:10;22.58;;;10.25;;
30896;SDS011;64229;52.246;21.054;2024-02-16T08:01:36;26.95;;;10.77;;
30896;SDS011;64229;52.246;21.054;2024-02-16T08:04:01;21.90;;;10.18;;
30896;SDS011;64229;52.246;21.054;2024-02-16T08:06:26;22.27;;;10.63;;
30896;SDS011;64229;52.246;21.054;2024-02-16T08:08:52;23.58;;;10.13;;
30896;SDS011;64229;52.246;21.054;2024-02-16T08:11:18;19.15;;;10.23;;
30896;SDS011;64229;52.246;21.054;2024-02-16T08:13:45;28.48;;;9.90;;
30896;SDS011;64229;52.246;21.054;2024-02-16T08:16:10;25.58;;;9.80;;
30896;SDS011;64229;52.246;21.054;2024-02-16T08:18:35;25.83;;;10.07;;
30896;SDS011;64229;52.246;21.054;2024-02-16T08:21:00;31.23;;;9.95;;
30896;SDS011;64229;52.246;21.054;2024-02-16T08:23:26;23.25;;;10.23;;
30896;SDS011;64229;52.246;21.054;2024-02-16T08:25:51;26.00;;;10.60;;
30896;SDS011;64229;52.246;21.054;2024-02-16T08:28:16;25.55;;;10.80;;
30896;SDS011;64229;52.246;21.054;2024-02-16T08:30:42;22.60;;;10.15;;
30896;SDS011;64229;52.246;21.054;2024-02-16T08:33:09;19.45;;;10.45;;
30896;SDS011;64229;52.246;21.054;2024-02-16T08:35:34;23.25;;;10.70;;
30896;SDS011;64229;52.246;21.054;2024-02-16T08:38:00;24.05;;;10.38;;
30896;SDS011;64229;52.246;21.054;2024-02-16T08:40:25;24.88;;;9.93;;
30896;SDS011;64229;52.246;21.054;2024-02-16T08:42:50;25.77;;;9.63;;
30896;SDS011;64229;52.246;21.054;2024-02-16T08:45:15;21.17;;;9.50;;
30896;SDS011;64229;52.246;21.054;2024-02-16T08:47:42;20.48;;;10.25;;
30896;SDS011;64229;52.246;21.054;2024-02-16T08:50:08;23.40;;;9.82;;
30896;SDS011;64229;52.246;21.054;2024-02-16T08:52:34;21.40;;;9.40;;
30896;SDS011;64229;52.246;21.054;2024-02-16T08:54:59;24.77;;;9.88;;
30896;SDS011;64229;52.246;21.054;2024-02-16T08:57:25;23.02;;;9.77;;
30896;SDS011;64229;52.246;21.054;2024-02-16T08:59:50;22.75;;;9.30;;
30896;SDS011;64229;52.246;21.054;2024-02-16T09:02:15;27.20;;;9.50;;
30896;SDS011;64229;52.246;21.054;2024-02-16T09:04:41;24.52;;;10.10;;
30896;SDS011;64229;52.246;21.054;2024-02-16T09:07:06;25.02;;;9.50;;
30896;SDS011;64229;52.246;21.054;2024-02-16T09:09:31;21.03;;;10.23;;
30896;SDS011;64229;52.246;21.054;2024-02-16T09:11:56;19.42;;;9.43;;
30896;SDS011;64229;52.246;21.054;2024-02-16T09:14:22;25.40;;;9.95;;
30896;SDS011;64229;52.246;21.054;2024-02-16T09:16:50;19.58;;;9.70;;
30896;SDS011;64229;52.246;21.054;2024-02-16T09:19:18;24.80;;;10.35;;
30896;SDS011;64229;52.246;21.054;2024-02-16T09:21:46;21.17;;;9.07;;
30896;SDS011;64229;52.246;21.054;2024-02-16T09:24:14;23.35;;;9.52;;
30896;SDS011;64229;52.246;21.054;2024-02-16T09:26:43;19.35;;;9.05;;
30896;SDS011;64229;52.246;21.054;2024-02-16T09:29:14;18.02;;;9.13;;
30896;SDS011;64229;52.246;21.054;2024-02-16T09:31:40;22.73;;;10.20;;
30896;SDS011;64229;52.246;21.054;2024-02-16T09:34:06;21.30;;;8.95;;
30896;SDS011;64229;52.246;21.054;2024-02-16T09:36:31;28.52;;;10.52;;
30896;SDS011;64229;52.246;21.054;2024-02-16T09:38:57;18.42;;;9.43;;
30896;SDS011;64229;52.246;21.054;2024-02-16T09:41:22;19.73;;;8.82;;
30896;SDS011;64229;52.246;21.054;2024-02-16T09:43:47;18.87;;;9.00;;
30896;SDS011;64229;52.246;21.054;2024-02-16T09:46:13;19.10;;;9.15;;
30896;SDS011;64229;52.246;21.054;2024-02-16T09:48:40;22.67;;;9.60;;
30896;SDS011;64229;52.246;21.054;2024-02-16T09:51:06;24.83;;;9.20;;
30896;SDS011;64229;52.246;21.054;2024-02-16T09:53:32;20.70;;;9.27;;
30896;SDS011;64229;52.246;21.054;2024-02-16T09:55:58;18.60;;;9.27;;
30896;SDS011;64229;52.246;21.054;2024-02-16T09:58:23;19.17;;;9.43;;
30896;SDS011;64229;52.246;21.054;2024-02-16T10:03:24;21.02;;;9.55;;
30896;SDS011;64229;52.246;21.054;2024-02-16T10:06:12;21.40;;;9.63;;
30896;SDS011;64229;52.246;21.054;2024-02-16T10:08:50;17.33;;;9.20;;
30896;SDS011;64229;52.246;21.054;2024-02-16T10:11:16;20.63;;;9.73;;
30896;SDS011;64229;52.246;21.054;2024-02-16T10:13:55;21.52;;;9.27;;
30896;SDS011;64229;52.246;21.054;2024-02-16T10:16:21;21.77;;;9.60;;
30896;SDS011;64229;52.246;21.054;2024-02-16T10:18:47;21.63;;;10.27;;
30896;SDS011;64229;52.246;21.054;2024-02-16T10:21:12;20.63;;;9.07;;
30896;SDS011;64229;52.246;21.054;2024-02-16T10:23:37;20.37;;;9.60;;
30896;SDS011;64229;52.246;21.054;2024-02-16T10:26:03;23.02;;;8.70;;
30896;SDS011;64229;52.246;21.054;2024-02-16T10:28:29;18.65;;;8.68;;
30896;SDS011;64229;52.246;21.054;2024-02-16T10:30:59;18.35;;;8.70;;
30896;SDS011;64229;52.246;21.054;2024-02-16T10:33:30;21.13;;;9.15;;
30896;SDS011;64229;52.246;21.054;2024-02-16T10:35:57;17.00;;;8.43;;
30896;SDS011;64229;52.246;21.054;2024-02-16T10:38:23;20.05;;;8.30;;
30896;SDS011;64229;52.246;21.054;2024-02-16T10:40:51;17.08;;;8.43;;
30896;SDS011;64229;52.246;21.054;2024-02-16T10:43:18;17.25;;;8.45;;
30896;SDS011;64229;52.246;21.054;2024-02-16T10:45:46;19.02;;;7.88;;
30896;SDS011;64229;52.246;21.054;2024-02-16T10:48:12;22.88;;;8.65;;
30896;SDS011;64229;52.246;21.054;2024-02-16T10:50:40;20.08;;;8.50;;
30896;SDS011;64229;52.246;21.054;2024-02-16T10:53:17;18.35;;;8.20;;
30896;SDS011;64229;52.246;21.054;2024-02-16T10:55:47;18.45;;;8.55;;
30896;SDS011;64229;52.246;21.054;2024-02-16T10:58:12;19.58;;;8.75;;
30896;SDS011;64229;52.246;21.054;2024-02-16T11:00:50;19.27;;;8.93;;
30896;SDS011;64229;52.246;21.054;2024-02-16T11:03:16;18.63;;;8.68;;
30896;SDS011;64229;52.246;21.054;2024-02-16T11:05:43;21.85;;;9.55;;
30896;SDS011;64229;52.246;21.054;2024-02-16T11:08:14;17.65;;;8.77;;
30896;SDS011;64229;52.246;21.054;2024-02-16T11:10:41;22.00;;;9.27;;
30896;SDS011;64229;52.246;21.054;2024-02-16T11:13:06;20.38;;;9.23;;
30896;SDS011;64229;52.246;21.054;2024-02-16T11:15:33;27.23;;;9.70;;
30896;SDS011;64229;52.246;21.054;2024-02-16T11:18:01;18.48;;;8.75;;
30896;SDS011;64229;52.246;21.054;2024-02-16T11:20:27;20.20;;;9.27;;
30896;SDS011;64229;52.246;21.054;2024-02-16T11:22:53;22.17;;;9.95;;
30896;SDS011;64229;52.246;21.054;2024-02-16T11:25:32;16.38;;;8.65;;
30896;SDS011;64229;52.246;21.054;2024-02-16T11:27:58;21.58;;;9.60;;
30896;SDS011;64229;52.246;21.054;2024-02-16T11:30:24;18.23;;;9.55;;
30896;SDS011;64229;52.246;21.054;2024-02-16T11:32:51;21.55;;;9.13;;
30896;SDS011;64229;52.246;21.054;2024-02-16T11:35:16;18.25;;;9.27;;
30896;SDS011;64229;52.246;21.054;2024-02-16T11:37:41;23.15;;;9.98;;
30896;SDS011;64229;52.246;21.054;2024-02-16T11:40:07;19.15;;;9.52;;
30896;SDS011;64229;52.246;21.054;2024-02-16T11:42:36;23.02;;;9.10;;
30896;SDS011;64229;52.246;21.054;2024-02-16T11:45:02;20.45;;;9.95;;
30896;SDS011;64229;52.246;21.054;2024-02-16T11:47:28;19.20;;;9.52;;
30896;SDS011;64229;52.246;21.054;2024-02-16T11:50:03;23.20;;;9.68;;
30896;SDS011;64229;52.246;21.054;2024-02-16T11:52:29;19.13;;;9.13;;
30896;SDS011;64229;52.246;21.054;2024-02-16T11:54:54;20.48;;;9.55;;
30896;SDS011;64229;52.246;21.054;2024-02-16T11:57:22;23.38;;;9.80;;
30896;SDS011;64229;52.246;21.054;2024-02-16T11:59:48;24.63;;;9.55;;
30896;SDS011;64229;52.246;21.054;2024-02-16T12:02:17;19.77;;;9.25;;
30896;SDS011;64229;52.246;21.054;2024-02-16T12:04:44;20.77;;;10.02;;
30896;SDS011;64229;52.246;21.054;2024-02-16T12:07:12;24.33;;;9.52;;
30896;SDS011;64229;52.246;21.054;2024-02-16T12:09:37;21.13;;;9.63;;
30896;SDS011;64229;52.246;21.054;2024-02-16T12:12:04;20.17;;;9.10;;
30896;SDS011;64229;52.246;21.054;2024-02-16T12:14:30;19.65;;;9.43;;
30896;SDS011;64229;52.246;21.054;2024-02-16T12:16:56;22.52;;;9.73;;
30896;SDS011;64229;52.246;21.054;2024-02-16T12:19:22;17.83;;;9.15;;
30896;SDS011;64229;52.246;21.054;2024-02-16T12:21:51;20.08;;;8.88;;
30896;SDS011;64229;52.246;21.054;2024-02-16T12:24:18;19.88;;;9.00;;
30896;SDS011;64229;52.246;21.054;2024-02-16T12:26:43;21.25;;;9.57;;
30896;SDS011;64229;52.246;21.054;2024-02-16T12:29:09;18.27;;;9.02;;
30896;SDS011;64229;52.246;21.054;2024-02-16T12:31:37;21.42;;;9.40;;
30896;SDS011;64229;52.246;21.054;2024-02-16T12:34:05;22.65;;;9.52;;
30896;SDS011;64229;52.246;21.054;2024-02-16T12:36:32;17.85;;;8.93;;
30896;SDS011;64229;52.246;21.054;2024-02-16T12:38:59;21.08;;;10.07;;
30896;SDS011;64229;52.246;21.054;2024-02-16T12:41:24;25.40;;;9.68;;
30896;SDS011;64229;52.246;21.054;2024-02-16T12:43:49;15.80;;;8.63;;
30896;SDS011;64229;52.246;21.054;2024-02-16T12:46:15;16.95;;;8.65;;
30896;SDS011;64229;52.246;21.054;2024-02-16T12:48:41;18.38;;;8.60;;
30896;SDS011;64229;52.246;21.054;2024-02-16T12:51:06;18.17;;;8.50;;
30896;SDS011;64229;52.246;21.054;2024-02-16T12:53:31;20.95;;;8.95;;
30896;SDS011;64229;52.246;21.054;2024-02-16T12:56:06;15.45;;;8.43;;
30896;SDS011;64229;52.246;21.054;2024-02-16T12:58:37;18.20;;;8.20;;
30896;SDS011;64229;52.246;21.054;2024-02-16T13:01:04;20.60;;;9.45;;
30896;SDS011;64229;52.246;21.054;2024-02-16T13:03:36;19.60;;;9.32;;
30896;SDS011;64229;52.246;21.054;2024-02-16T13:06:02;18.85;;;9.13;;
30896;SDS011;64229;52.246;21.054;2024-02-16T13:08:29;17.20;;;8.65;;
30896;SDS011;64229;52.246;21.054;2024-02-16T13:10:55;16.92;;;8.32;;
30896;SDS011;64229;52.246;21.054;2024-02-16T13:13:20;19.13;;;9.07;;
30896;SDS011;64229;52.246;21.054;2024-02-16T13:15:46;19.83;;;9.23;;
30896;SDS011;64229;52.246;21.054;2024-02-16T13:18:12;22.15;;;9.35;;
30896;SDS011;64229;52.246;21.054;2024-02-16T13:20:38;17.60;;;8.35;;
30896;SDS011;64229;52.246;21.054;2024-02-16T13:23:03;16.67;;;8.38;;
30896;SDS011;64229;52.246;21.054;2024-02-16T13:25:28;21.92;;;8.93;;
30896;SDS011;64229;52.246;21.054;2024-02-16T13:27:54;20.07;;;8.60;;
30896;SDS011;64229;52.246;21.054;2024-02-16T13:30:19;18.92;;;9.43;;
30896;SDS011;64229;52.246;21.054;2024-02-16T13:32:44;16.75;;;8.73;;
30896;SDS011;64229;52.246;21.054;2024-02-16T13:35:10;22.27;;;9.48;;
30896;SDS011;64229;52.246;21.054;2024-02-16T13:37:35;15.60;;;8.93;;
30896;SDS011;64229;52.246;21.054;2024-02-16T13:40:02;16.48;;;8.25;;
30896;SDS011;64229;52.246;21.054;2024-02-16T13:42:32;15.88;;;8.70;;
30896;SDS011;64229;52.246;21.054;2024-02-16T13:44:57;18.50;;;8.80;;
30896;SDS011;64229;52.246;21.054;2024-02-16T13:47:23;18.55;;;8.07;;
30896;SDS011;64229;52.246;21.054;2024-02-16T13:49:48;16.90;;;7.90;;
30896;SDS011;64229;52.246;21.054;2024-02-16T13:52:14;16.48;;;8.93;;
30896;SDS011;64229;52.246;21.054;2024-02-16T13:54:40;16.38;;;7.65;;
30896;SDS011;64229;52.246;21.054;2024-02-16T13:57:05;18.52;;;8.60;;
30896;SDS011;64229;52.246;21.054;2024-02-16T13:59:30;15.73;;;7.40;;
30896;SDS011;64229;52.246;21.054;2024-02-16T14:01:58;16.63;;;7.78;;
30896;SDS011;64229;52.246;21.054;2024-02-16T14:04:24;15.55;;;7.75;;
30896;SDS011;64229;52.246;21.054;2024-02-16T14:06:51;13.45;;;6.65;;
30896;SDS011;64229;52.246;21.054;2024-02-16T14:09:17;14.52;;;6.60;;
30896;SDS011;64229;52.246;21.054;2024-02-16T14:11:44;14.50;;;7.63;;